Time;durP1;ratioP1;P1;durP2;ratioP2;P2;SDS_P1;SDS_P2;PMS_P1;PMS_P2;Temp;Humidity;BMP_temperature;BMP_pressure;BME280_temperature;BME280_humidity;BME280_pressure;Samples;Min_cycle;Max_cycle;Signal;HPM_P1;HPM_P2
2021/10/27 00:00:04;;;;;;;44.13;20.83;;;;;;;2.36;100.00;98330.97;5066575;28;20024;-85
2021/10/27 00:02:30;;;;;;;47.08;21.00;;;;;;;2.36;100.00;98325.69;5068388;28;20115;-85
2021/10/27 00:04:56;;;;;;;41.20;19.92;;;;;;;2.41;100.00;98323.81;5069669;28;20052;-85
2021/10/27 00:07:21;;;;;;;42.67;20.67;;;;;;;2.37;100.00;98316.84;5069657;28;20024;-85
2021/10/27 00:09:47;;;;;;;47.78;21.08;;;;;;;2.46;100.00;98324.59;5072729;28;20028;-85
2021/10/27 00:12:15;;;;;;;41.22;20.13;;;;;;;2.49;100.00;98324.53;5066406;28;20027;-85
2021/10/27 00:14:41;;;;;;;37.90;19.77;;;;;;;2.53;100.00;98328.88;5072590;28;20092;-85
2021/10/27 00:17:06;;;;;;;41.25;20.05;;;;;;;2.52;100.00;98332.41;5068402;28;20032;-86
2021/10/27 00:19:32;;;;;;;43.80;19.75;;;;;;;2.51;100.00;98321.91;5060913;28;20024;-85
2021/10/27 00:21:57;;;;;;;39.25;19.92;;;;;;;2.40;100.00;98310.66;5072782;28;20030;-86
2021/10/27 00:24:23;;;;;;;40.67;21.35;;;;;;;2.36;100.00;98317.75;5069705;28;20040;-86
2021/10/27 00:26:49;;;;;;;37.40;19.10;;;;;;;2.37;100.00;98322.13;5084030;28;20032;-85
2021/10/27 00:29:14;;;;;;;37.38;18.92;;;;;;;2.31;100.00;98316.94;5072759;28;20028;-85
2021/10/27 00:31:40;;;;;;;36.22;18.40;;;;;;;2.39;100.00;98328.25;5067706;28;20028;-86
2021/10/27 00:34:05;;;;;;;36.05;18.83;;;;;;;2.24;100.00;98310.06;5066056;28;20115;-86
2021/10/27 00:36:31;;;;;;;33.75;17.02;;;;;;;2.20;100.00;98311.00;5068524;28;20055;-86
2021/10/27 00:38:57;;;;;;;35.30;17.52;;;;;;;2.18;100.00;98305.72;5072623;28;20032;-85
2021/10/27 00:41:22;;;;;;;37.28;17.80;;;;;;;2.11;100.00;98311.16;5072235;28;20074;-86
2021/10/27 00:43:48;;;;;;;34.95;17.35;;;;;;;2.07;100.00;98301.53;5092283;28;20020;-86
2021/10/27 00:46:19;;;;;;;33.20;17.48;;;;;;;2.00;100.00;98303.38;5075193;28;20031;-86
2021/10/27 00:48:45;;;;;;;45.40;18.27;;;;;;;2.04;100.00;98320.03;5092401;28;20023;-86
2021/10/27 00:51:12;;;;;;;38.72;18.48;;;;;;;2.04;100.00;98317.41;5058053;28;20032;-86
2021/10/27 00:53:39;;;;;;;38.85;19.88;;;;;;;1.95;100.00;98307.00;5059837;28;20102;-86
2021/10/27 00:56:04;;;;;;;42.10;19.83;;;;;;;1.92;100.00;98304.41;5072821;28;20032;-86
2021/10/27 00:58:30;;;;;;;41.28;19.80;;;;;;;1.96;100.00;98319.31;5061116;28;20483;-85
2021/10/27 01:00:55;;;;;;;42.17;19.55;;;;;;;1.90;100.00;98306.22;5063660;28;20032;-86
2021/10/27 01:03:21;;;;;;;43.58;23.02;;;;;;;1.89;100.00;98312.38;5056000;28;20028;-85
2021/10/27 01:05:46;;;;;;;53.10;24.25;;;;;;;1.86;100.00;98302.75;5056683;28;20419;-86
2021/10/27 01:08:13;;;;;;;51.05;25.05;;;;;;;1.85;100.00;98300.13;5055473;28;20116;-86
2021/10/27 01:10:40;;;;;;;52.45;24.25;;;;;;;1.93;100.00;98308.81;5056851;28;20036;-85
2021/10/27 01:13:06;;;;;;;54.55;26.08;;;;;;;1.96;100.00;98316.66;5079938;28;20024;-86
2021/10/27 01:15:38;;;;;;;55.30;25.30;;;;;;;1.96;100.00;98312.28;5085929;28;20244;-86
2021/10/27 01:20:39;;;;;;;50.10;25.92;;;;;;;2.00;100.00;98326.28;5140071;22;19947;-89
2021/10/27 01:23:05;;;;;;;55.20;26.27;;;;;;;2.01;100.00;98317.44;5032843;28;20024;-89
2021/10/27 01:25:30;;;;;;;59.67;26.67;;;;;;;1.98;100.00;98313.09;5431665;22;20038;-83
2021/10/27 01:27:56;;;;;;;50.40;25.60;;;;;;;1.97;100.00;98313.16;5014135;28;20061;-83
2021/10/27 01:30:24;;;;;;;49.05;24.95;;;;;;;1.75;100.00;98286.22;5013070;28;20042;-82
2021/10/27 01:32:52;;;;;;;56.70;25.50;;;;;;;1.88;100.00;98311.50;5014120;28;20512;-82
2021/10/27 01:35:18;;;;;;;50.78;24.50;;;;;;;1.91;100.00;98310.56;5014562;28;20087;-82
2021/10/27 01:37:44;;;;;;;49.33;25.02;;;;;;;1.83;100.00;98320.38;5013998;28;20072;-82
2021/10/27 01:40:18;;;;;;;48.58;23.42;;;;;;;1.79;100.00;98306.38;5014461;28;20120;-83
2021/10/27 01:42:44;;;;;;;49.42;23.33;;;;;;;1.84;100.00;98312.47;5014489;28;20095;-82
2021/10/27 01:45:10;;;;;;;57.03;24.35;;;;;;;1.91;100.00;98321.13;5015105;28;20049;-82
2021/10/27 01:47:41;;;;;;;53.75;22.90;;;;;;;1.76;100.00;98316.97;5014455;28;20063;-82
2021/10/27 01:50:07;;;;;;;44.90;21.77;;;;;;;1.64;100.00;98312.75;5014904;28;20044;-88
2021/10/27 01:52:33;;;;;;;47.20;21.80;;;;;;;1.59;100.00;98319.84;5014806;28;20035;-88
2021/10/27 01:54:58;;;;;;;47.90;22.75;;;;;;;1.48;100.00;98318.22;5013900;28;20132;-88
2021/10/27 01:57:24;;;;;;;48.08;23.38;;;;;;;1.50;100.00;98325.25;5015158;28;20071;-88
2021/10/27 01:59:50;;;;;;;44.47;21.13;;;;;;;1.55;100.00;98327.81;5015388;28;20060;-89
2021/10/27 02:02:15;;;;;;;39.70;21.60;;;;;;;1.64;100.00;98346.13;5015019;28;20096;-89
2021/10/27 02:04:41;;;;;;;41.78;20.95;;;;;;;1.54;100.00;98326.94;5014939;28;20164;-88
2021/10/27 02:07:07;;;;;;;47.15;22.90;;;;;;;1.45;100.00;98329.69;5031044;28;20558;-87
2021/10/27 02:09:32;;;;;;;43.00;21.45;;;;;;;1.49;100.00;98338.44;5013913;28;20029;-89
2021/10/27 02:11:58;;;;;;;54.65;21.42;;;;;;;1.29;100.00;98333.44;5014970;28;20041;-89
2021/10/27 02:14:24;;;;;;;39.53;19.58;;;;;;;1.24;100.00;98329.97;5046942;28;20030;-89
2021/10/27 02:16:50;;;;;;;43.50;20.13;;;;;;;1.16;100.00;98333.63;5013496;28;20034;-89
2021/10/27 02:19:16;;;;;;;35.70;18.27;;;;;;;1.21;100.00;98343.19;5016313;28;20029;-88
2021/10/27 02:21:41;;;;;;;51.28;18.40;;;;;;;1.19;100.00;98334.44;5016833;28;20065;-87
2021/10/27 02:24:07;;;;;;;39.15;17.98;;;;;;;1.19;100.00;98345.00;5017019;28;20110;-89
2021/10/27 02:26:32;;;;;;;34.78;16.52;;;;;;;1.01;100.00;98330.28;5032744;28;20397;-89
2021/10/27 02:28:58;;;;;;;32.55;16.80;;;;;;;0.95;100.00;98329.47;5038144;28;20033;-89
2021/10/27 02:31:24;;;;;;;37.58;16.83;;;;;;;0.89;100.00;98332.19;5038810;28;20047;-88
2021/10/27 02:33:49;;;;;;;48.45;16.85;;;;;;;0.87;100.00;98344.47;5038729;28;20032;-89
2021/10/27 02:36:15;;;;;;;37.97;15.85;;;;;;;0.74;100.00;98340.25;5037548;28;20029;-89
2021/10/27 02:38:42;;;;;;;32.42;16.65;;;;;;;0.75;100.00;98341.97;5039130;28;20040;-88
2021/10/27 02:41:09;;;;;;;38.35;18.40;;;;;;;0.64;100.00;98335.97;5038688;28;20036;-89
2021/10/27 02:43:35;;;;;;;32.63;17.55;;;;;;;0.64;100.00;98339.47;5056103;28;20035;-89
2021/10/27 02:46:01;;;;;;;30.45;16.50;;;;;;;0.61;100.00;98336.88;5055348;28;20392;-88
2021/10/27 02:48:26;;;;;;;37.45;17.65;;;;;;;0.62;100.00;98349.13;5038496;28;20036;-88
2021/10/27 02:50:52;;;;;;;34.13;18.25;;;;;;;0.50;100.00;98338.72;5038838;28;20029;-88
2021/10/27 02:53:17;;;;;;;34.95;18.02;;;;;;;0.48;100.00;98337.88;5038851;28;20029;-88
2021/10/27 02:55:43;;;;;;;36.65;18.13;;;;;;;0.50;100.00;98339.59;5055313;28;20045;-89
2021/10/27 02:58:09;;;;;;;32.65;17.38;;;;;;;0.60;100.00;98348.28;5038853;28;20044;-89
2021/10/27 03:00:34;;;;;;;46.75;20.50;;;;;;;0.54;100.00;98349.22;5038137;28;20419;-89
2021/10/27 03:03:00;;;;;;;38.53;18.88;;;;;;;0.62;100.00;98340.34;5038577;28;20044;-87
2021/10/27 03:05:26;;;;;;;38.15;18.90;;;;;;;0.73;100.00;98343.75;5037286;28;20399;-89
2021/10/27 03:07:51;;;;;;;33.80;17.05;;;;;;;0.80;100.00;98350.72;5037655;28;20385;-88
2021/10/27 03:10:17;;;;;;;32.97;17.45;;;;;;;0.82;100.00;98354.19;5038293;28;20032;-88
2021/10/27 03:12:43;;;;;;;37.78;17.80;;;;;;;0.85;100.00;98356.78;5038623;28;20123;-88
2021/10/27 03:15:10;;;;;;;34.28;18.00;;;;;;;0.91;100.00;98349.69;5054274;28;20037;-88
2021/10/27 03:17:37;;;;;;;37.13;19.25;;;;;;;0.91;100.00;98349.69;5055051;28;20052;-88
2021/10/27 03:20:03;;;;;;;45.60;20.17;;;;;;;1.05;100.00;98368.84;5037856;28;20025;-87
2021/10/27 03:22:28;;;;;;;41.42;20.98;;;;;;;0.93;100.00;98347.03;5037745;28;20025;-88
2021/10/27 03:24:54;;;;;;;39.40;19.30;;;;;;;1.06;100.00;98372.34;5038979;28;20035;-87
2021/10/27 03:27:19;;;;;;;47.13;22.30;;;;;;;1.01;100.00;98363.66;5059012;28;20886;-88
2021/10/27 03:29:45;;;;;;;42.72;21.70;;;;;;;1.04;100.00;98371.50;5042270;28;20083;-89
2021/10/27 03:32:11;;;;;;;54.13;21.40;;;;;;;0.98;100.00;98368.94;5042086;28;20035;-87
2021/10/27 03:34:39;;;;;;;52.85;24.45;;;;;;;1.10;100.00;98387.25;5040488;28;20067;-86
2021/10/27 03:37:07;;;;;;;51.58;23.98;;;;;;;1.02;100.00;98379.41;5057369;28;20040;-88
2021/10/27 03:39:32;;;;;;;56.55;25.45;;;;;;;1.02;100.00;98379.41;5057362;28;20029;-89
2021/10/27 03:41:58;;;;;;;59.00;25.75;;;;;;;1.05;100.00;98371.47;5040767;28;20119;-88
2021/10/27 03:44:24;;;;;;;65.82;26.60;;;;;;;1.11;100.00;98386.34;5038398;28;20048;-88
2021/10/27 03:46:51;;;;;;;47.72;25.20;;;;;;;1.15;100.00;98384.53;5041298;28;20028;-90
2021/10/27 03:49:17;;;;;;;45.97;23.80;;;;;;;1.02;100.00;98373.25;5041180;28;20020;-89
2021/10/27 03:51:43;;;;;;;49.92;22.52;;;;;;;1.18;100.00;98382.75;5041174;28;20548;-89
2021/10/27 03:54:09;;;;;;;51.50;22.45;;;;;;;1.14;100.00;98370.50;5040816;28;20051;-88
2021/10/27 03:56:34;;;;;;;46.55;23.63;;;;;;;1.20;100.00;98373.06;5040330;28;20077;-89
2021/10/27 03:59:00;;;;;;;39.63;19.38;;;;;;;1.17;100.00;98373.09;5040691;28;20491;-88
2021/10/27 04:01:26;;;;;;;46.75;20.05;;;;;;;1.10;100.00;98376.72;5040503;28;20024;-88
2021/10/27 04:03:51;;;;;;;43.08;19.95;;;;;;;1.12;100.00;98374.91;5041626;28;20025;-87
2021/10/27 04:06:17;;;;;;;48.72;20.30;;;;;;;1.05;100.00;98378.50;5041075;28;20024;-88
2021/10/27 04:08:42;;;;;;;38.30;17.67;;;;;;;1.02;100.00;98374.16;5039333;28;20378;-90
2021/10/27 04:11:08;;;;;;;43.83;19.48;;;;;;;0.92;100.00;98372.50;5040488;28;20024;-89
2021/10/27 04:13:35;;;;;;;45.67;19.60;;;;;;;1.01;100.00;98384.72;5040544;28;20029;-87
2021/10/27 04:16:01;;;;;;;36.15;19.45;;;;;;;0.98;100.00;98383.00;5041098;28;20062;-89
2021/10/27 04:18:26;;;;;;;45.40;20.13;;;;;;;0.87;100.00;98362.91;5040196;28;20064;-88
2021/10/27 04:20:52;;;;;;;71.88;20.38;;;;;;;0.94;100.00;98391.81;5041069;28;20471;-89
2021/10/27 04:23:17;;;;;;;54.38;20.55;;;;;;;0.77;100.00;98377.06;5039772;28;20042;-87
2021/10/27 04:25:43;;;;;;;52.42;20.52;;;;;;;0.77;100.00;98387.59;5039673;28;20057;-88
2021/10/27 04:28:09;;;;;;;80.80;21.60;;;;;;;0.88;100.00;98378.69;5039870;28;20029;-89
2021/10/27 04:30:34;;;;;;;70.53;29.30;;;;;;;1.13;100.00;98397.75;5040177;28;20123;-85
2021/10/27 04:33:00;;;;;;;58.05;28.30;;;;;;;1.19;100.00;98387.13;5041010;28;20021;-87
2021/10/27 04:35:26;;;;;;;72.05;23.73;;;;;;;1.26;100.00;98396.69;5040843;28;20025;-92
2021/10/27 04:37:52;;;;;;;65.70;24.15;;;;;;;1.13;100.00;98378.44;5044335;28;20025;-91
2021/10/27 04:40:19;;;;;;;67.35;27.10;;;;;;;1.21;100.00;98379.19;5042367;28;20024;-85
2021/10/27 04:42:46;;;;;;;81.53;29.35;;;;;;;1.24;100.00;98401.13;5039767;28;20068;-87
2021/10/27 04:45:12;;;;;;;90.35;31.45;;;;;;;1.17;100.00;98378.34;5056817;28;20031;-88
2021/10/27 04:47:39;;;;;;;57.83;23.77;;;;;;;1.20;100.00;98380.97;5045469;28;20028;-88
2021/10/27 04:50:06;;;;;;;60.33;25.98;;;;;;;1.25;100.00;98387.06;5043988;28;20094;-89
2021/10/27 04:52:32;;;;;;;91.00;30.48;;;;;;;1.31;100.00;98396.66;5043039;28;20056;-89
2021/10/27 04:54:58;;;;;;;161.18;28.52;;;;;;;1.35;100.00;98399.25;5041594;28;20086;-87
2021/10/27 04:57:23;;;;;;;96.85;30.20;;;;;;;1.36;100.00;98406.25;5041985;28;20028;-88
2021/10/27 04:59:49;;;;;;;153.52;40.10;;;;;;;1.26;100.00;98387.94;5059330;28;20051;-88
2021/10/27 05:02:16;;;;;;;154.32;31.05;;;;;;;1.29;100.00;98398.44;5043464;28;20491;-89
2021/10/27 05:04:42;;;;;;;117.88;32.03;;;;;;;1.38;100.00;98408.88;5043650;28;20047;-88
2021/10/27 05:07:11;;;;;;;98.97;30.95;;;;;;;1.31;100.00;98387.00;5042912;28;20028;-87
2021/10/27 05:10:07;;;;;;;;;;;;;;;;;;;;;
2021/10/27 05:12:38;;;;;;;112.85;30.73;;;;;;;1.53;100.00;98399.03;5025521;28;20092;-89
2021/10/27 05:15:05;;;;;;;72.95;27.88;;;;;;;1.25;100.00;98323.84;5034619;28;20040;-89
2021/10/27 05:17:30;;;;;;;123.15;29.60;;;;;;;1.40;100.00;98370.19;5041797;28;20028;-88
2021/10/27 05:20:09;;;;;;;126.40;28.00;;;;;;;1.27;100.00;98329.06;5041466;28;20474;-88
2021/10/27 05:22:35;;;;;;;69.80;27.58;;;;;;;1.90;100.00;98425.78;5043086;28;20035;-88
2021/10/27 05:25:08;;;;;;;78.68;29.65;;;;;;;1.68;100.00;98360.16;5045460;28;20025;-89
2021/10/27 05:27:40;;;;;;;74.60;29.92;;;;;;;1.58;100.00;98352.38;5043207;28;20020;-89
2021/10/27 05:30:07;;;;;;;111.57;32.38;;;;;;;1.76;100.00;98388.16;5042914;28;20047;-88
2021/10/27 05:32:33;;;;;;;235.05;42.83;;;;;;;1.77;100.00;98407.50;5041810;28;20504;-88
2021/10/27 05:34:58;;;;;;;271.20;46.50;;;;;;;1.78;100.00;98432.97;5059705;28;20035;-88
2021/10/27 05:37:24;;;;;;;134.18;39.85;;;;;;;1.82;100.00;98410.94;5041635;28;20024;-87
2021/10/27 05:39:50;;;;;;;93.35;34.58;;;;;;;2.02;100.00;98424.72;5042080;28;20095;-88
2021/10/27 05:42:20;;;;;;;89.75;31.13;;;;;;;2.18;100.00;98424.47;5041996;28;20028;-88
2021/10/27 05:44:49;;;;;;;86.38;33.42;;;;;;;2.25;100.00;98421.75;5043017;28;20048;-88
2021/10/27 05:47:18;;;;;;;139.15;38.75;;;;;;;2.18;100.00;98413.06;5044899;28;20387;-88
2021/10/27 05:57:27;;;;;;;134.90;41.60;;;;;;;2.06;100.00;98424.66;5063352;28;20131;-86
2021/10/27 05:59:55;;;;;;;183.63;48.40;;;;;;;2.23;100.00;98434.97;5045426;28;20048;-84
2021/10/27 06:02:21;;;;;;;163.35;52.85;;;;;;;1.92;100.00;98412.56;5046897;28;20024;-84
2021/10/27 06:04:47;;;;;;;130.05;48.40;;;;;;;2.27;100.00;98463.06;5059785;28;20152;-84
2021/10/27 06:07:18;;;;;;;141.60;47.33;;;;;;;2.07;100.00;98434.31;5061129;28;20024;-83
2021/10/27 06:09:43;;;;;;;158.05;47.40;;;;;;;2.33;100.00;98456.81;5043955;28;20040;-84
2021/10/27 06:12:13;;;;;;;138.32;50.97;;;;;;;2.51;100.00;98473.28;5045359;28;20142;-85
2021/10/27 06:14:39;;;;;;;147.40;54.83;;;;;;;2.51;100.00;98456.56;5062347;28;20040;-85
2021/10/27 06:17:05;;;;;;;167.60;55.95;;;;;;;2.49;100.00;98453.91;5059247;28;20028;-85
2021/10/27 06:19:30;;;;;;;144.18;50.42;;;;;;;2.58;100.00;98466.13;5041642;28;20086;-84
2021/10/27 06:21:56;;;;;;;210.65;53.38;;;;;;;2.69;100.00;98462.41;5049667;28;20036;-85
2021/10/27 06:24:24;;;;;;;198.50;51.47;;;;;;;2.95;100.00;98492.81;5066044;28;20044;-84
2021/10/27 06:26:51;;;;;;;162.70;49.30;;;;;;;2.85;100.00;98478.88;5056293;28;20044;-86
2021/10/27 06:29:29;;;;;;;143.70;49.45;;;;;;;2.79;100.00;98465.78;5060457;28;20043;-85
2021/10/27 06:34:53;;;;;;;150.32;44.13;;;;;;;3.32;100.00;98470.13;5044785;28;20036;-85
2021/10/27 06:37:50;;;;;;;115.00;42.10;;;;;;;3.60;100.00;98465.19;5060169;28;20024;-84
2021/10/27 06:46:00;;;;;;;109.20;36.85;;;;;;;4.15;100.00;98486.94;5061229;28;20046;-86
2021/10/27 06:48:26;;;;;;;109.75;36.33;;;;;;;4.27;100.00;98485.84;5031807;28;20078;-85
2021/10/27 06:50:52;;;;;;;117.85;37.75;;;;;;;4.30;100.00;98510.47;5040499;28;20032;-83
2021/10/27 06:53:18;;;;;;;116.90;39.92;;;;;;;4.06;100.00;98497.72;5042366;28;20068;-87
2021/10/27 06:55:43;;;;;;;91.60;37.08;;;;;;;4.28;100.00;98512.25;5041494;28;20067;-84
2021/10/27 06:58:10;;;;;;;86.68;36.47;;;;;;;4.52;100.00;98524.13;5040949;28;20029;-83
2021/10/27 07:00:57;;;;;;;108.13;34.08;;;;;;;4.16;100.00;98514.28;5040357;28;20036;-84
2021/10/27 07:17:14;;;;;;;103.45;32.30;;;;;;;4.03;100.00;98515.47;5060608;28;20090;-86
2021/10/27 07:19:43;;;;;;;90.03;31.20;;;;;;;3.98;100.00;98514.69;5041764;28;20025;-87
2021/10/27 07:22:13;;;;;;;93.38;32.58;;;;;;;4.24;100.00;98483.25;5045632;28;20056;-85
2021/10/27 07:24:38;;;;;;;70.88;30.92;;;;;;;4.53;100.00;98517.03;5041655;28;20052;-84
2021/10/27 07:27:05;;;;;;;155.02;32.80;;;;;;;4.35;100.00;98474.16;5058716;28;20044;-84
2021/10/27 07:29:31;;;;;;;84.43;32.88;;;;;;;4.53;100.00;98517.91;5039853;28;20028;-84
2021/10/27 07:31:56;;;;;;;71.03;29.60;;;;;;;4.60;100.00;98500.97;5038907;28;20035;-83
2021/10/27 07:34:31;;;;;;;65.78;28.73;;;;;;;4.73;100.00;98499.78;5054427;28;20024;-78
2021/10/27 07:42:26;;;;;;;58.30;25.20;;;;;;;5.71;98.98;98507.00;5058797;28;20443;-84
2021/10/27 07:44:54;;;;;;;61.50;26.00;;;;;;;6.14;95.93;98511.13;5042478;28;20028;-85
2021/10/27 07:47:26;;;;;;;49.00;23.02;;;;;;;6.77;90.33;98514.50;5042859;28;20028;-85
2021/10/27 07:49:51;;;;;;;64.32;25.63;;;;;;;7.18;86.98;98514.94;5040443;28;20483;-87
2021/10/27 07:52:20;;;;;;;56.75;26.92;;;;;;;6.36;90.47;98517.56;5042413;28;20025;-84
2021/10/27 07:54:46;;;;;;;60.88;25.52;;;;;;;5.66;96.95;98508.88;5044106;28;20047;-80
2021/10/27 07:57:21;;;;;;;58.97;27.45;;;;;;;5.71;94.92;98466.28;5061346;28;20052;-80
2021/10/27 07:59:46;;;;;;;57.20;25.58;;;;;;;6.79;95.56;98515.34;5043680;28;20474;-83
2021/10/27 08:02:12;;;;;;;54.83;25.13;;;;;;;7.91;84.71;98500.84;5059776;28;20031;-83
2021/10/27 08:04:38;;;;;;;48.78;25.48;;;;;;;9.04;75.88;98490.28;5040480;28;20055;-82
2021/10/27 08:07:04;;;;;;;39.15;21.50;;;;;;;9.97;69.61;98511.22;5037381;28;20036;-81
2021/10/27 08:09:33;;;;;;;39.25;21.48;;;;;;;9.58;71.28;98503.13;5037887;28;20036;-80
2021/10/27 08:11:58;;;;;;;41.92;21.33;;;;;;;9.69;70.42;98510.69;5058773;28;20037;-80
2021/10/27 08:14:34;;;;;;;44.80;24.63;;;;;;;11.25;65.86;98512.34;5054293;28;20431;-82
2021/10/27 08:16:59;;;;;;;47.88;26.08;;;;;;;12.15;61.55;98513.13;5053292;28;20133;-81
2021/10/27 08:19:25;;;;;;;53.05;27.08;;;;;;;13.44;55.97;98494.22;5024847;28;20507;-81
2021/10/27 08:21:51;;;;;;;46.92;24.77;;;;;;;14.16;53.02;98496.16;5054257;28;20459;-81
2021/10/27 08:24:22;;;;;;;39.53;25.70;;;;;;;14.39;51.49;98482.22;5075056;28;20123;-81
2021/10/27 08:26:55;;;;;;;62.03;27.70;;;;;;;14.89;50.66;98483.53;5032391;28;20103;-81
2021/10/27 08:29:28;;;;;;;47.20;23.95;;;;;;;14.41;52.51;98492.88;5029204;28;20033;-80
2021/10/27 08:32:02;;;;;;;41.38;23.80;;;;;;;15.92;50.31;98498.22;5012832;28;20497;-82
2021/10/27 08:34:37;;;;;;;59.28;31.10;;;;;;;16.17;47.09;98477.53;5013296;28;20484;-80
2021/10/27 08:37:03;;;;;;;57.13;31.75;;;;;;;15.26;48.06;98480.13;5012981;28;20076;-80
2021/10/27 08:39:28;;;;;;;50.90;29.73;;;;;;;15.22;49.66;98491.25;5028900;28;20037;-82
2021/10/27 08:41:54;;;;;;;44.92;22.75;;;;;;;16.01;47.50;98484.09;5030074;28;20400;-81
2021/10/27 08:44:20;;;;;;;45.00;25.10;;;;;;;17.00;45.18;98470.69;5012521;28;20408;-82
2021/10/27 08:46:46;;;;;;;50.40;26.23;;;;;;;17.20;44.05;98477.31;5013616;28;20022;-82
2021/10/27 08:49:15;;;;;;;52.00;26.85;;;;;;;16.59;45.81;98468.25;5012408;28;20036;-81
2021/10/27 08:51:51;;;;;;;52.53;23.77;;;;;;;16.54;46.48;98475.84;5014529;28;20065;-83
2021/10/27 08:54:17;;;;;;;41.60;24.58;;;;;;;17.18;44.21;98463.03;5029700;28;20119;-80
2021/10/27 08:56:44;;;;;;;45.63;24.85;;;;;;;17.57;43.60;98465.50;5030222;28;20558;-81
2021/10/27 08:59:19;;;;;;;46.35;25.73;;;;;;;18.28;42.27;98451.84;5013046;28;20037;-80
2021/10/27 09:06:58;;;;;;;46.88;24.40;;;;;;;19.06;40.50;98449.16;5030599;28;20039;-85
2021/10/27 09:36:03;;;;;;;57.28;38.38;;;;;;;19.14;38.95;98426.81;5058530;28;20116;-79
2021/10/27 10:06:13;;;;;;;29.58;17.92;;;;;;;22.92;33.24;98377.75;5056538;28;20493;-79
2021/10/27 10:08:44;;;;;;;28.67;18.33;;;;;;;23.08;32.19;98373.34;5037348;28;20414;-79
2021/10/27 10:11:12;;;;;;;22.25;15.88;;;;;;;23.25;32.06;98377.16;5037346;28;20028;-78
2021/10/27 10:13:39;;;;;;;22.27;14.82;;;;;;;23.87;31.14;98370.75;5037735;28;20024;-78
2021/10/27 10:16:06;;;;;;;19.50;14.20;;;;;;;23.27;31.97;98356.00;5054256;28;20116;-78
2021/10/27 10:18:31;;;;;;;23.13;12.57;;;;;;;23.00;32.45;98365.09;5037336;28;20021;-78
2021/10/27 10:21:00;;;;;;;14.63;9.40;;;;;;;23.54;31.71;98355.94;5053834;28;20020;-78
2021/10/27 10:23:26;;;;;;;18.42;10.13;;;;;;;24.37;30.40;98359.19;5037087;28;20035;-79
2021/10/27 10:25:56;;;;;;;17.33;11.02;;;;;;;23.95;30.85;98364.50;5050265;28;20085;-78
2021/10/27 10:28:29;;;;;;;16.58;10.23;;;;;;;24.04;31.18;98353.50;5050911;28;20119;-78
2021/10/27 10:30:58;;;;;;;13.13;9.82;;;;;;;23.21;31.83;98353.88;5033799;28;20132;-80
2021/10/27 10:33:45;;;;;;;16.98;10.10;;;;;;;23.22;31.89;98353.72;5034395;28;20478;-78
2021/10/27 10:36:34;;;;;;;18.08;10.30;;;;;;;24.03;31.01;98351.75;5033424;28;20036;-81
2021/10/27 10:39:14;;;;;;;25.15;9.70;;;;;;;23.46;31.80;98352.28;5034012;28;20044;-80
2021/10/27 11:38:50;;;;;;;13.07;7.28;;;;;;;24.00;30.88;98311.06;5054871;28;20043;-78
2021/10/27 11:44:45;;;;;;;17.48;7.22;;;;;;;24.82;29.70;98309.72;5039132;28;20036;-78
2021/10/27 11:47:12;;;;;;;10.77;7.07;;;;;;;26.13;27.99;98303.19;5053164;28;20170;-79
2021/10/27 11:49:41;;;;;;;9.65;6.07;;;;;;;26.23;27.70;98292.91;5035399;28;20028;-78
2021/10/27 11:52:08;;;;;;;10.57;8.07;;;;;;;25.90;28.17;98290.38;5035432;28;20500;-79
2021/10/27 11:54:38;;;;;;;11.63;7.53;;;;;;;26.61;27.09;98280.25;5050733;28;21975;-79
2021/10/27 11:57:04;;;;;;;7.43;5.93;;;;;;;26.34;27.06;98284.28;5052139;28;20032;-80
2021/10/27 11:59:38;;;;;;;13.63;8.75;;;;;;;25.98;27.64;98285.72;5035198;28;20047;-79
2021/10/27 12:02:04;;;;;;;13.40;8.50;;;;;;;26.53;27.24;98282.19;5051925;28;20492;-79
2021/10/27 12:04:34;;;;;;;11.35;7.80;;;;;;;25.77;27.82;98283.53;5051571;28;20047;-77
2021/10/27 12:07:11;;;;;;;7.68;5.90;;;;;;;22.52;31.62;98291.63;5035002;28;20032;-77
2021/10/27 12:10:01;;;;;;;7.05;5.53;;;;;;;22.85;32.10;98294.78;5035724;28;20115;-79
2021/10/27 12:12:44;;;;;;;11.90;6.10;;;;;;;22.37;32.37;98295.00;5038358;28;20456;-77
2021/10/27 12:18:08;;;;;;;20.27;16.35;;;;;;;24.09;30.82;98293.69;5054098;28;20111;-79
2021/10/27 12:20:36;;;;;;;9.35;6.10;;;;;;;23.84;31.09;98294.53;5034599;28;20028;-78
2021/10/27 12:23:06;;;;;;;14.00;7.10;;;;;;;23.28;31.69;98291.31;5034858;28;20454;-77
2021/10/27 12:25:32;;;;;;;10.18;6.35;;;;;;;22.51;32.53;98299.97;5051248;28;20132;-77
2021/10/27 12:28:02;;;;;;;8.25;5.85;;;;;;;22.73;32.41;98285.09;5034553;28;20054;-78
2021/10/27 12:30:39;;;;;;;12.07;5.40;;;;;;;22.14;33.13;98289.94;5035183;28;20093;-78
2021/10/27 12:33:05;;;;;;;7.38;5.55;;;;;;;22.87;32.30;98295.50;5034503;28;20029;-78
2021/10/27 12:35:32;;;;;;;11.55;5.20;;;;;;;23.47;31.49;98285.75;5035039;28;20550;-79
2021/10/27 12:38:15;;;;;;;10.77;6.28;;;;;;;24.49;30.38;98276.69;5051553;28;20052;-78
2021/10/27 12:40:45;;;;;;;6.68;4.90;;;;;;;23.87;30.26;98264.16;5052712;28;20036;-78
2021/10/27 12:43:16;;;;;;;10.00;5.82;;;;;;;23.61;30.66;98255.09;5069135;28;20115;-78
2021/10/27 12:45:48;;;;;;;11.30;6.53;;;;;;;23.88;30.27;98270.50;5031038;28;20483;-78
2021/10/27 12:48:19;;;;;;;9.33;5.47;;;;;;;23.84;30.55;98261.75;5034755;28;20332;-80
2021/10/27 12:50:55;;;;;;;13.60;5.80;;;;;;;24.23;30.42;98274.00;5034991;28;20479;-79
2021/10/27 12:53:43;;;;;;;10.75;6.18;;;;;;;23.08;31.33;98266.91;5034905;28;20121;-80
2021/10/27 12:56:18;;;;;;;10.13;5.93;;;;;;;23.42;31.36;98258.88;5051021;28;20047;-80
2021/10/27 12:58:48;;;;;;;8.82;5.15;;;;;;;23.13;31.20;98245.44;5051363;28;20465;-79
2021/10/27 13:20:03;;;;;;;9.70;5.88;;;;;;;25.64;27.76;98249.44;5053661;28;20079;-79
2021/10/27 13:30:36;;;;;;;164.25;74.97;;;;;;;24.99;29.53;98249.34;5053620;28;20039;-80
2021/10/27 13:33:08;;;;;;;201.38;96.03;;;;;;;25.70;28.13;98237.78;5051980;28;20035;-79
2021/10/27 13:35:35;;;;;;;36.72;17.42;;;;;;;24.85;29.04;98244.53;5051569;28;20020;-79
2021/10/27 13:38:02;;;;;;;16.23;7.35;;;;;;;24.61;29.64;98234.31;5034286;28;20519;-79
2021/10/27 13:40:28;;;;;;;21.77;10.90;;;;;;;25.02;28.76;98232.59;5050736;28;20029;-80
2021/10/27 13:43:00;;;;;;;11.55;6.63;;;;;;;24.16;29.78;98240.13;5034597;28;20102;-79
2021/10/27 14:05:59;;;;;;;8.20;5.85;;;;;;;24.04;29.48;98229.59;5055878;28;20039;-79
2021/10/27 14:07:57;;;;;;;10.30;5.68;;;;;;;21.43;33.57;98236.03;5055554;28;20089;-78
2021/10/27 14:10:43;;;;;;;7.93;5.03;;;;;;;22.06;32.81;98243.50;5038440;28;20495;-79
2021/10/27 14:40:19;;;;;;;14.55;6.97;;;;;;;20.38;35.70;98251.25;5069297;28;20051;-80
2021/10/27 14:50:25;;;;;;;21.98;9.18;;;;;;;19.01;38.76;98272.38;5058421;28;20578;-78
2021/10/27 15:15:34;;;;;;;71.70;37.08;;;;;;;15.12;49.14;98323.88;5058516;28;20500;-78
2021/10/27 15:20:54;;;;;;;73.80;37.17;;;;;;;12.62;60.84;98360.25;5057984;28;20104;-77
2021/10/27 15:42:10;;;;;;;117.55;58.22;;;;;;;11.28;70.34;98355.97;5054867;28;20443;-77
2021/10/27 15:52:35;;;;;;;63.05;28.63;;;;;;;10.75;72.65;98361.38;5061093;28;20039;-90
2021/10/27 15:55:00;;;;;;;56.47;31.73;;;;;;;10.70;73.30;98379.47;5046975;28;20020;-91
2021/10/27 15:57:26;;;;;;;50.22;25.15;;;;;;;10.45;73.96;98357.53;5044629;28;20108;-91
2021/10/27 15:59:55;;;;;;;98.22;50.35;;;;;;;10.36;75.79;98382.03;5039443;28;20043;-89
2021/10/27 16:02:21;;;;;;;100.38;43.47;;;;;;;10.22;76.36;98383.56;5040223;28;20487;-87
2021/10/27 16:04:47;;;;;;;120.97;64.53;;;;;;;10.14;76.90;98380.38;5055523;28;20036;-78
2021/10/27 16:07:16;;;;;;;51.83;27.23;;;;;;;10.17;77.29;98395.41;5035952;28;20024;-82
2021/10/27 16:09:48;;;;;;;69.63;36.00;;;;;;;10.13;78.33;98405.38;5036919;28;20028;-81
2021/10/27 16:12:14;;;;;;;74.55;37.42;;;;;;;10.04;78.79;98400.41;5038411;28;20032;-80
2021/10/27 16:14:40;;;;;;;76.32;41.67;;;;;;;10.03;78.11;98408.53;5036312;28;20086;-76
2021/10/27 16:17:06;;;;;;;79.20;39.47;;;;;;;9.85;79.34;98396.84;5036555;28;20103;-87